createdAt,value
2019-05-23T00:01:18.879Z,76.28
2019-05-23T00:03:49.973Z,76.89
2019-05-23T00:06:24.035Z,77.73
2019-05-23T00:08:55.298Z,77.90
2019-05-23T00:11:29.338Z,77.46
2019-05-23T00:14:00.499Z,77.06
2019-05-23T00:16:30.913Z,76.53
2019-05-23T00:19:00.536Z,76.37
2019-05-23T00:21:30.799Z,76.32
2019-05-23T00:24:00.780Z,76.29
2019-05-23T00:26:30.216Z,75.81
2019-05-23T00:29:10.133Z,75.53
2019-05-23T00:31:51.633Z,75.72
2019-05-23T00:34:21.614Z,75.30
2019-05-23T00:36:51.227Z,75.22
2019-05-23T00:39:21.322Z,75.58
2019-05-23T00:41:51.431Z,75.37
2019-05-23T00:44:21.034Z,75.24
2019-05-23T00:46:50.953Z,75.43
2019-05-23T00:49:20.408Z,76.01
2019-05-23T00:51:50.336Z,76.21
2019-05-23T00:54:19.966Z,76.11
2019-05-23T00:56:50.464Z,76.08
2019-05-23T00:59:27.254Z,76.01
2019-05-23T01:01:52.477Z,76.14
2019-05-23T01:04:22.642Z,76.15
2019-05-23T01:06:52.257Z,75.81
2019-05-23T01:09:22.774Z,75.66
2019-05-23T01:11:52.234Z,75.53
2019-05-23T01:14:22.303Z,75.49
2019-05-23T01:16:51.738Z,75.82
2019-05-23T01:19:21.350Z,75.68
2019-05-23T01:21:55.421Z,75.99
2019-05-23T01:24:42.131Z,75.93
2019-05-23T01:27:13.243Z,75.96
2019-05-23T01:29:49.714Z,75.87
2019-05-23T01:32:23.606Z,75.69
2019-05-23T01:34:53.854Z,75.45
2019-05-23T01:37:24.729Z,75.78
2019-05-23T01:39:54.829Z,76.30
2019-05-23T01:42:25.879Z,77.33
2019-05-23T01:44:55.758Z,77.38
2019-05-23T01:47:26.257Z,77.19
2019-05-23T01:49:56.809Z,77.46
2019-05-23T01:52:26.344Z,77.50
2019-05-23T01:54:56.105Z,77.25
2019-05-23T01:57:26.279Z,78.01
2019-05-23T02:00:09.089Z,78.10
2019-05-23T02:02:29.235Z,77.77
2019-05-23T02:04:59.323Z,77.56
2019-05-23T02:07:30.619Z,77.52
2019-05-23T02:10:00.322Z,77.19
2019-05-23T02:12:30.950Z,76.83
2019-05-23T02:15:00.641Z,76.90
2019-05-23T02:17:31.518Z,76.89
2019-05-23T02:20:01.745Z,76.59
2019-05-23T02:22:31.340Z,76.42
2019-05-23T02:25:02.325Z,76.91
2019-05-23T02:27:33.101Z,77.06
2019-05-23T02:30:02.606Z,76.75
2019-05-23T02:32:34.067Z,76.50
2019-05-23T02:35:06.250Z,76.76
2019-05-23T02:37:38.600Z,76.99
2019-05-23T02:40:12.270Z,77.23
2019-05-23T02:42:43.355Z,77.44
2019-05-23T02:45:20.827Z,77.27
2019-05-23T02:47:50.563Z,76.90
2019-05-23T02:50:39.930Z,76.67
2019-05-23T02:53:13.714Z,76.44
2019-05-23T02:55:45.081Z,76.73
2019-05-23T02:58:44.030Z,76.94
2019-05-23T03:01:34.451Z,77.12
2019-05-23T03:04:06.297Z,76.94
2019-05-23T03:06:38.083Z,76.69
2019-05-23T03:09:08.593Z,76.86
2019-05-23T03:11:40.108Z,77.25
2019-05-23T03:14:10.843Z,77.01
2019-05-23T03:16:43.184Z,76.81
2019-05-23T03:19:32.339Z,76.74
2019-05-23T03:22:25.093Z,76.93
2019-05-23T03:24:55.079Z,76.82
2019-05-23T03:27:26.433Z,76.79
2019-05-23T03:29:56.438Z,76.86
2019-05-23T03:32:37.563Z,76.44
2019-05-23T03:35:06.045Z,76.18
2019-05-23T03:37:35.727Z,76.17
2019-05-23T03:40:08.424Z,76.09
2019-05-23T03:42:38.711Z,76.07
2019-05-23T03:45:10.429Z,76.17
2019-05-23T03:47:40.523Z,76.09
2019-05-23T03:50:11.746Z,76.03
2019-05-23T03:52:41.946Z,76.21
2019-05-23T03:55:11.895Z,76.68
2019-05-23T03:57:42.671Z,76.76
2019-05-23T04:00:15.759Z,77.09
2019-05-23T04:02:46.214Z,76.82
2019-05-23T04:05:16.396Z,76.86
2019-05-23T04:07:45.909Z,77.42
2019-05-23T04:10:15.483Z,77.11
2019-05-23T04:12:45.007Z,77.08
2019-05-23T04:15:14.985Z,76.87
2019-05-23T04:17:44.684Z,76.88
2019-05-23T04:20:14.595Z,76.92
2019-05-23T04:22:44.389Z,76.85
2019-05-23T04:25:14.094Z,76.70
2019-05-23T04:27:43.546Z,76.58
2019-05-23T04:30:13.158Z,76.38
2019-05-23T04:32:42.602Z,75.92
2019-05-23T04:35:12.361Z,75.78
2019-05-23T04:37:42.334Z,75.54
2019-05-23T04:40:13.307Z,75.04
2019-05-23T04:42:42.817Z,74.78
2019-05-23T04:45:12.768Z,74.94
2019-05-23T04:47:42.475Z,75.30
2019-05-23T04:50:14.353Z,75.40
2019-05-23T04:52:44.102Z,75.34
2019-05-23T04:55:15.281Z,75.39
2019-05-23T04:57:45.535Z,75.36
2019-05-23T05:00:20.190Z,75.21
2019-05-23T05:02:49.768Z,75.34
2019-05-23T05:05:19.764Z,74.98
2019-05-23T05:07:49.745Z,74.86
2019-05-23T05:10:22.428Z,75.00
2019-05-23T05:12:52.170Z,74.74
2019-05-23T05:15:23.244Z,74.63
2019-05-23T05:17:52.820Z,74.82
2019-05-23T05:20:22.502Z,75.01
2019-05-23T05:22:52.419Z,74.63
2019-05-23T05:25:21.947Z,74.05
2019-05-23T05:27:51.729Z,73.93
2019-05-23T05:30:21.444Z,73.25
2019-05-23T05:32:51.212Z,73.43
2019-05-23T05:35:20.735Z,73.75
2019-05-23T05:37:50.191Z,74.02
2019-05-23T05:40:20.043Z,73.94
2019-05-23T05:42:49.502Z,73.77
2019-05-23T05:45:19.586Z,73.96
2019-05-23T05:47:49.054Z,74.21
2019-05-23T05:50:18.834Z,74.04
2019-05-23T05:52:48.542Z,73.82
2019-05-23T05:55:18.005Z,73.66
2019-05-23T05:57:47.456Z,73.14
2019-05-23T06:00:27.389Z,72.95
2019-05-23T06:03:04.084Z,72.71
2019-05-23T06:05:48.473Z,72.36
2019-05-23T06:08:19.565Z,72.22
2019-05-23T06:10:49.251Z,72.37
2019-05-23T06:13:18.782Z,73.21
2019-05-23T06:15:48.918Z,72.99
2019-05-23T06:18:19.291Z,72.75
2019-05-23T06:20:49.868Z,72.90
2019-05-23T06:23:20.057Z,72.26
2019-05-23T06:25:49.862Z,71.60
2019-05-23T06:28:20.325Z,71.39
2019-05-23T06:30:51.414Z,71.16
2019-05-23T06:33:23.987Z,70.71
2019-05-23T06:35:52.905Z,70.46
2019-05-23T06:38:23.218Z,69.94
2019-05-23T06:40:54.627Z,69.68
2019-05-23T06:43:24.815Z,69.49
2019-05-23T06:45:54.553Z,69.20
2019-05-23T06:48:24.210Z,68.87
2019-05-23T06:50:53.747Z,68.31
2019-05-23T06:53:23.267Z,68.54
2019-05-23T06:55:52.714Z,68.13
2019-05-23T06:58:23.228Z,67.91
2019-05-23T07:00:53.063Z,67.36
2019-05-23T07:03:39.913Z,66.93
2019-05-23T07:05:53.972Z,66.61
2019-05-23T07:08:28.055Z,66.61
2019-05-23T07:10:57.599Z,66.51
2019-05-23T07:13:29.723Z,67.13
2019-05-23T07:15:59.502Z,66.54
2019-05-23T07:18:29.166Z,66.54
2019-05-23T07:20:58.612Z,66.72
2019-05-23T07:23:28.480Z,66.80
2019-05-23T07:25:57.949Z,66.77
2019-05-23T07:28:27.387Z,66.86
2019-05-23T07:30:56.996Z,66.54
2019-05-23T07:33:26.511Z,66.83
2019-05-23T07:35:56.620Z,66.19
2019-05-23T07:38:26.068Z,66.93
2019-05-23T07:40:56.963Z,66.34
2019-05-23T07:43:26.509Z,66.45
2019-05-23T07:45:59.198Z,67.01
2019-05-23T07:48:29.339Z,66.81
2019-05-23T07:50:58.974Z,64.98
2019-05-23T07:53:43.737Z,64.67
2019-05-23T07:56:13.362Z,64.60
2019-05-23T07:58:43.274Z,65.20
2019-05-23T08:01:14.759Z,64.86
2019-05-23T08:03:45.357Z,64.52
2019-05-23T08:06:15.451Z,64.56
2019-05-23T08:08:44.919Z,66.05
2019-05-23T08:11:14.394Z,65.20
2019-05-23T08:13:44.466Z,65.97
2019-05-23T08:16:13.949Z,64.04
2019-05-23T08:18:43.855Z,63.80
2019-05-23T08:21:13.348Z,63.18
2019-05-23T08:23:42.842Z,63.97
2019-05-23T08:26:13.069Z,63.02
2019-05-23T08:29:11.396Z,62.21
2019-05-23T08:31:13.884Z,62.19
2019-05-23T08:33:43.775Z,61.60
2019-05-23T08:36:13.385Z,61.30
2019-05-23T08:38:42.849Z,61.28
2019-05-23T08:41:12.408Z,59.69
2019-05-23T08:43:41.932Z,60.20
2019-05-23T08:46:12.537Z,58.97
2019-05-23T08:48:42.141Z,59.98
2019-05-23T08:51:11.699Z,58.37
2019-05-23T08:53:41.194Z,58.20
2019-05-23T08:56:19.165Z,57.39
2019-05-23T08:58:42.548Z,57.54
2019-05-23T09:01:11.999Z,56.59
2019-05-23T09:06:11.232Z,54.87
2019-05-23T09:08:41.463Z,54.95
2019-05-23T09:11:11.242Z,55.39
2019-05-23T09:13:40.828Z,53.77
2019-05-23T09:16:10.815Z,54.50
2019-05-23T09:18:40.321Z,52.58
2019-05-23T09:21:10.159Z,50.70
2019-05-23T09:23:39.875Z,51.57
2019-05-23T09:26:09.344Z,52.78
2019-05-23T09:28:39.094Z,51.41
2019-05-23T09:31:09.146Z,50.92
2019-05-23T09:33:38.774Z,52.06
2019-05-23T09:36:08.747Z,53.18
2019-05-23T09:38:38.445Z,50.89
2019-05-23T09:41:07.903Z,51.96
2019-05-23T09:43:37.488Z,49.76
2019-05-23T09:46:06.955Z,48.95
2019-05-23T09:48:36.641Z,49.03
2019-05-23T09:51:06.088Z,48.09
2019-05-23T09:53:35.573Z,47.50
2019-05-23T09:56:05.163Z,47.96
2019-05-23T09:58:34.607Z,47.29
2019-05-23T10:01:04.509Z,48.26
2019-05-23T10:03:33.958Z,47.66
2019-05-23T10:06:03.405Z,47.64
2019-05-23T10:08:33.007Z,48.62
2019-05-23T10:11:02.457Z,47.71
2019-05-23T10:13:39.011Z,48.97
2019-05-23T10:16:07.892Z,49.14
2019-05-23T10:18:37.522Z,49.50
2019-05-23T10:21:07.037Z,47.79
2019-05-23T10:23:36.647Z,47.97
2019-05-23T10:26:06.738Z,47.43
2019-05-23T10:28:36.312Z,46.61
2019-05-23T10:31:07.064Z,46.79
2019-05-23T10:33:36.686Z,47.07
2019-05-23T10:36:06.284Z,49.16
2019-05-23T10:38:35.739Z,48.83
2019-05-23T10:41:05.623Z,46.84
2019-05-23T10:43:35.091Z,45.87
2019-05-23T10:46:04.878Z,47.10
2019-05-23T10:48:34.580Z,46.15
2019-05-23T10:51:04.115Z,45.79
2019-05-23T10:53:33.672Z,46.59
2019-05-23T10:56:03.271Z,47.06
2019-05-23T10:58:33.446Z,46.71
2019-05-23T11:01:03.503Z,45.38
2019-05-23T11:03:33.461Z,45.60
2019-05-23T11:06:15.591Z,46.06
2019-05-23T11:08:36.376Z,44.43
2019-05-23T11:11:07.739Z,45.08
2019-05-23T11:13:37.188Z,44.20
2019-05-23T11:16:06.643Z,44.16
2019-05-23T11:18:36.124Z,43.28
2019-05-23T11:21:06.107Z,44.28
2019-05-23T11:23:37.261Z,43.46
2019-05-23T11:26:08.233Z,45.63
2019-05-23T11:28:37.740Z,44.99
2019-05-23T11:31:09.169Z,43.90
2019-05-23T11:33:38.637Z,43.38
2019-05-23T11:36:08.083Z,42.93
2019-05-23T11:38:37.668Z,42.58
2019-05-23T11:41:07.436Z,40.63
2019-05-23T11:43:36.889Z,39.66
2019-05-23T11:46:17.247Z,42.47
2019-05-23T11:48:46.775Z,38.73
2019-05-23T11:51:16.977Z,38.91
2019-05-23T11:54:04.068Z,39.29
2019-05-23T11:56:17.760Z,39.11
2019-05-23T11:58:47.257Z,40.26
2019-05-23T12:01:21.242Z,41.65
2019-05-23T12:03:51.892Z,39.32
2019-05-23T12:06:25.738Z,39.82
2019-05-23T12:08:53.259Z,37.62
2019-05-23T12:11:22.776Z,38.77
2019-05-23T12:13:52.290Z,38.39
2019-05-23T12:16:23.357Z,37.39
2019-05-23T12:18:53.265Z,36.91
2019-05-23T12:21:23.525Z,35.99
2019-05-23T12:23:53.098Z,37.14
2019-05-23T12:26:22.645Z,36.26
2019-05-23T12:28:52.093Z,37.00
2019-05-23T12:31:21.682Z,37.53
2019-05-23T12:33:51.146Z,37.76
2019-05-23T12:36:20.742Z,37.85
2019-05-23T12:38:51.808Z,39.33
2019-05-23T12:41:21.454Z,38.25
2019-05-23T12:43:50.918Z,35.38
2019-05-23T12:46:20.426Z,37.48
2019-05-23T12:48:51.590Z,34.94
2019-05-23T12:51:25.521Z,36.50
2019-05-23T12:53:56.603Z,35.21
2019-05-23T12:56:26.589Z,35.92
2019-05-23T12:58:56.433Z,35.92
2019-05-23T13:01:27.049Z,34.97
2019-05-23T13:03:56.823Z,35.96
2019-05-23T13:06:26.918Z,37.31
2019-05-23T13:08:56.440Z,35.80
2019-05-23T13:11:25.964Z,35.23
2019-05-23T13:13:55.479Z,36.11
2019-05-23T13:16:25.311Z,37.26
2019-05-23T13:18:54.819Z,35.85
2019-05-23T13:21:24.282Z,36.19
2019-05-23T13:23:55.747Z,36.89
2019-05-23T13:26:25.168Z,36.31
2019-05-23T13:28:54.614Z,37.20
2019-05-23T13:31:24.146Z,37.01
2019-05-23T13:33:56.242Z,37.42
2019-05-23T13:36:24.961Z,36.87
2019-05-23T13:38:54.404Z,36.84
2019-05-23T13:41:23.987Z,37.96
2019-05-23T13:43:53.793Z,35.95
2019-05-23T13:46:23.265Z,35.86
2019-05-23T13:48:52.834Z,34.22
2019-05-23T13:51:22.312Z,34.59
2019-05-23T13:53:51.769Z,34.12
2019-05-23T13:56:21.581Z,36.29
2019-05-23T13:58:51.096Z,36.47
2019-05-23T14:01:21.334Z,36.66
2019-05-23T14:03:51.000Z,36.44
2019-05-23T14:06:20.460Z,36.94
2019-05-23T14:08:49.909Z,37.13
2019-05-23T14:11:19.405Z,36.64
2019-05-23T14:13:58.328Z,36.72
2019-05-23T14:16:20.525Z,35.80
2019-05-23T14:18:50.253Z,37.02
2019-05-23T14:21:19.888Z,38.05
2019-05-23T14:23:49.395Z,37.67
2019-05-23T14:26:19.893Z,37.09
2019-05-23T14:28:49.363Z,36.16
2019-05-23T14:31:19.031Z,34.56
2019-05-23T14:33:50.187Z,34.18
2019-05-23T14:36:37.031Z,33.63
2019-05-23T14:39:10.345Z,34.38
2019-05-23T14:41:45.681Z,34.16
2019-05-23T14:44:15.328Z,34.50
2019-05-23T14:46:46.452Z,34.44
2019-05-23T14:49:20.017Z,31.74
2019-05-23T14:51:53.799Z,31.87
2019-05-23T14:54:30.874Z,32.85
2019-05-23T14:57:00.352Z,32.37
2019-05-23T14:59:30.516Z,31.89
2019-05-23T15:02:00.473Z,32.43
2019-05-23T15:04:30.209Z,31.36
2019-05-23T15:06:59.653Z,30.20
2019-05-23T15:09:29.185Z,29.30
2019-05-23T15:11:59.144Z,29.47
2019-05-23T15:14:28.568Z,29.54
2019-05-23T15:16:58.036Z,28.17
2019-05-23T15:19:41.782Z,28.21
2019-05-23T15:21:58.662Z,28.39
2019-05-23T15:24:28.970Z,29.50
2019-05-23T15:26:58.648Z,31.32
2019-05-23T15:29:29.235Z,31.75
2019-05-23T15:32:02.840Z,30.77
2019-05-23T15:34:30.155Z,30.10
2019-05-23T15:36:59.599Z,30.42
2019-05-23T15:39:29.636Z,29.86
2019-05-23T15:41:59.167Z,29.96
2019-05-23T15:44:30.170Z,32.23
2019-05-23T15:46:59.885Z,31.41
2019-05-23T15:49:30.124Z,32.91
2019-05-23T15:52:01.297Z,33.51
2019-05-23T15:54:41.387Z,34.20
2019-05-23T15:57:18.327Z,34.25
2019-05-23T16:00:01.561Z,36.23
2019-05-23T16:02:38.407Z,34.66
2019-05-23T16:05:10.683Z,32.51
2019-05-23T16:07:40.128Z,32.07
2019-05-23T16:10:10.627Z,33.24
2019-05-23T16:12:40.087Z,34.02
2019-05-23T16:15:09.734Z,35.06
2019-05-23T16:17:39.305Z,36.00
2019-05-23T16:20:09.266Z,35.67
2019-05-23T16:22:38.726Z,37.03
2019-05-23T16:25:08.511Z,37.94
2019-05-23T16:27:38.365Z,37.48
2019-05-23T16:30:09.152Z,37.23
2019-05-23T16:32:38.613Z,35.32
2019-05-23T16:35:08.156Z,34.26
2019-05-23T16:37:37.667Z,33.72
2019-05-23T16:40:09.476Z,32.61
2019-05-23T16:42:38.944Z,32.50
2019-05-23T16:45:08.925Z,32.07
2019-05-23T16:47:38.848Z,30.54
2019-05-23T16:50:08.866Z,31.44
2019-05-23T16:52:38.493Z,32.45
2019-05-23T16:55:09.656Z,32.03
2019-05-23T16:57:38.881Z,30.16
2019-05-23T17:00:14.585Z,29.98
2019-05-23T17:02:45.686Z,32.54
2019-05-23T17:05:32.976Z,33.52
2019-05-23T17:08:10.042Z,34.44
2019-05-23T17:10:42.076Z,33.96
2019-05-23T17:13:29.435Z,35.27
2019-05-23T17:16:01.621Z,35.29
2019-05-23T17:18:32.841Z,35.35
2019-05-23T17:21:06.885Z,33.40
2019-05-23T17:23:38.214Z,32.29
2019-05-23T17:26:21.242Z,29.36
2019-05-23T17:28:54.918Z,28.92
2019-05-23T17:31:29.109Z,29.73
2019-05-23T17:33:58.632Z,29.39
2019-05-23T17:36:28.091Z,29.42
2019-05-23T17:38:57.811Z,30.27
2019-05-23T17:41:27.622Z,29.40
2019-05-23T17:43:57.086Z,28.74
2019-05-23T17:46:26.569Z,29.32
2019-05-23T17:48:56.144Z,27.72
2019-05-23T17:51:25.858Z,28.56
2019-05-23T17:53:55.401Z,30.98
2019-05-23T17:56:25.144Z,31.34
2019-05-23T17:58:54.655Z,32.24
2019-05-23T18:01:25.736Z,30.99
2019-05-23T18:03:55.196Z,33.91
2019-05-23T18:06:25.151Z,33.12
2019-05-23T18:08:54.758Z,32.90
2019-05-23T18:11:24.680Z,32.88
2019-05-23T18:13:54.335Z,32.87
2019-05-23T18:16:24.288Z,36.14
2019-05-23T18:18:53.889Z,36.12
2019-05-23T18:21:23.994Z,39.29
2019-05-23T18:23:53.945Z,40.37
2019-05-23T18:26:23.389Z,38.03
2019-05-23T18:28:53.289Z,37.93
2019-05-23T18:31:24.374Z,41.04
2019-05-23T18:33:54.142Z,43.05
2019-05-23T18:36:23.662Z,39.39
2019-05-23T18:38:53.864Z,41.82
2019-05-23T18:41:23.344Z,42.83
2019-05-23T18:43:53.328Z,42.44
2019-05-23T18:46:24.563Z,45.44
2019-05-23T18:48:55.680Z,48.04
2019-05-23T18:51:25.302Z,48.71
2019-05-23T18:53:54.976Z,49.35
2019-05-23T18:56:24.602Z,49.95
2019-05-23T18:58:54.131Z,49.53
2019-05-23T19:01:25.797Z,50.10
2019-05-23T19:03:59.518Z,50.32
2019-05-23T19:06:29.571Z,50.85
2019-05-23T19:08:59.109Z,50.78
2019-05-23T19:11:28.639Z,51.80
2019-05-23T19:13:58.271Z,51.99
2019-05-23T19:16:28.350Z,51.73
2019-05-23T19:18:58.245Z,51.68
2019-05-23T19:21:28.526Z,52.81
2019-05-23T19:23:58.233Z,53.38
2019-05-23T19:26:28.101Z,54.43
2019-05-23T19:28:57.803Z,54.69
2019-05-23T19:31:27.703Z,55.22
2019-05-23T19:33:58.502Z,55.42
2019-05-23T19:36:28.245Z,55.78
2019-05-23T19:38:57.699Z,55.80
2019-05-23T19:41:36.816Z,56.74
2019-05-23T19:43:58.547Z,56.96
2019-05-23T19:46:28.084Z,57.05
2019-05-23T19:48:57.963Z,57.17
2019-05-23T19:51:27.702Z,56.56
2019-05-23T19:53:58.852Z,55.89
2019-05-23T19:56:28.953Z,57.27
2019-05-23T19:58:58.565Z,57.83
2019-05-23T20:01:32.290Z,57.86
2019-05-23T20:04:00.916Z,58.08
2019-05-23T20:06:31.493Z,58.31
2019-05-23T20:09:01.727Z,57.72
2019-05-23T20:11:31.314Z,58.30
2019-05-23T20:14:00.951Z,57.55
2019-05-23T20:16:30.745Z,58.37
2019-05-23T20:19:00.261Z,59.25
2019-05-23T20:21:29.994Z,59.44
2019-05-23T20:23:59.612Z,59.43
2019-05-23T20:26:29.133Z,59.02
2019-05-23T20:28:58.640Z,59.65
2019-05-23T20:31:28.161Z,58.74
2019-05-23T20:33:59.522Z,59.15
2019-05-23T20:36:28.947Z,59.65
2019-05-23T20:38:58.470Z,60.37
2019-05-23T20:41:28.384Z,60.87
2019-05-23T20:43:59.453Z,61.12
2019-05-23T20:46:28.970Z,61.95
2019-05-23T20:48:58.438Z,62.07
2019-05-23T20:51:27.953Z,63.28
2019-05-23T20:53:57.463Z,63.33
2019-05-23T20:56:26.923Z,63.28
2019-05-23T20:58:56.368Z,63.07
2019-05-23T21:01:33.214Z,62.98
2019-05-23T21:04:02.699Z,63.65
2019-05-23T21:06:32.182Z,64.23
2019-05-23T21:09:01.644Z,64.48
2019-05-23T21:11:31.319Z,65.00
2019-05-23T21:14:00.832Z,65.13
2019-05-23T21:16:30.359Z,65.02
2019-05-23T21:19:00.007Z,64.96
2019-05-23T21:21:29.522Z,64.97
2019-05-23T21:23:59.129Z,65.39
2019-05-23T21:26:28.716Z,65.29
2019-05-23T21:28:58.173Z,65.61
2019-05-23T21:31:27.767Z,65.80
2019-05-23T21:33:57.249Z,66.10
2019-05-23T21:36:26.702Z,66.04
2019-05-23T21:38:56.163Z,66.55
2019-05-23T21:41:25.610Z,66.13
2019-05-23T21:43:56.712Z,66.11
2019-05-23T21:46:26.208Z,66.37
2019-05-23T21:48:55.627Z,66.28
2019-05-23T21:51:25.208Z,66.38
2019-05-23T21:53:54.678Z,66.46
2019-05-23T21:56:24.163Z,66.28
2019-05-23T21:58:53.833Z,66.02
2019-05-23T22:01:24.367Z,66.40
2019-05-23T22:04:05.174Z,66.90
2019-05-23T22:06:39.350Z,66.72
2019-05-23T22:09:10.673Z,67.44
2019-05-23T22:11:40.197Z,68.06
2019-05-23T22:14:09.913Z,67.80
2019-05-23T22:16:39.530Z,67.63
2019-05-23T22:19:10.590Z,67.63
2019-05-23T22:21:40.047Z,67.83
2019-05-23T22:24:09.739Z,68.15
2019-05-23T22:26:39.182Z,68.76
2019-05-23T22:29:09.212Z,68.68
2019-05-23T22:31:38.894Z,68.54
2019-05-23T22:34:15.663Z,68.58
2019-05-23T22:36:45.116Z,69.07
2019-05-23T22:39:14.569Z,69.25
2019-05-23T22:41:44.026Z,69.47
2019-05-23T22:44:13.816Z,69.16
2019-05-23T22:46:43.523Z,69.34
2019-05-23T22:49:12.970Z,69.52
2019-05-23T22:51:42.413Z,69.43
2019-05-23T22:54:11.882Z,69.57
2019-05-23T22:56:41.403Z,69.31
2019-05-23T22:59:10.917Z,69.62
2019-05-23T23:01:40.460Z,70.27
2019-05-23T23:04:11.070Z,70.36
2019-05-23T23:06:40.514Z,70.35
2019-05-23T23:09:10.037Z,70.07
2019-05-23T23:11:39.668Z,69.90
2019-05-23T23:14:09.113Z,70.19
2019-05-23T23:16:38.561Z,70.19
2019-05-23T23:19:08.350Z,69.95
2019-05-23T23:21:37.843Z,70.39
2019-05-23T23:24:07.306Z,70.58
2019-05-23T23:26:36.750Z,70.21
2019-05-23T23:29:06.587Z,70.30
2019-05-23T23:31:36.033Z,70.94
2019-05-23T23:34:05.548Z,70.89
2019-05-23T23:36:35.008Z,70.92
2019-05-23T23:39:05.535Z,70.95
2019-05-23T23:41:35.002Z,70.98
2019-05-23T23:44:05.227Z,70.89
2019-05-23T23:46:52.080Z,70.74
2019-05-23T23:49:39.333Z,70.94
2019-05-23T23:52:26.502Z,71.24
2019-05-23T23:55:13.583Z,71.54
2019-05-23T23:58:00.020Z,71.51
